Corpus Christi, TX (78411)

12:42 AM CST on February 08, 2016 (GMT -0600)
Cole Place | | Change Station
CLOSE
Current Station
Personal Weather Station
Location: Corpus Christi, TX
Elevation: 46 ft
Nearby Weather Stations
Active Advisory: Fire Weather Warning

Elev 46 ft 27.75 °N, 97.37 °W | Updated 2 seconds ago

Partly Cloudy
Partly Cloudy
55.0 °F
Feels Like 55.0 °F
N
3.0
Wind Variable Wind from NW
Gusts 4.0 mph

Today
High -- | Low -- °F
--% Chance of Precip.
Yesterday
High -- | Low -- °F
Precip. -- in
Pressure 30.17 in
Visibility 10.0 miles
Clouds Clear
Dew Point 49 °F
Humidity 81%
Rainfall 0.00 in
Snow Depth Not available.
7:12 AM 6:15 PM
Waning Crescent, 0% visible
METAR KNGP 080556Z AUTO 18007KT 10SM CLR 13/12 A3017 RMK AO2 SLP217 T01330117 10156 20122 402000072 58001
Pressure 30.17 in
Visibility 10.0 miles
Clouds Clear
Dew Point 49 °F
Humidity 81%
Rainfall 0.00 in
Snow Depth Not available.
7:12 AM 6:15 PM
Waning Crescent, 0% visible
METAR KNGP 080556Z AUTO 18007KT 10SM CLR 13/12 A3017 RMK AO2 SLP217 T01330117 10156 20122 402000072 58001

10-Day Weather Forecast

Almanac

Astronomy

Feb. 08, 2016 Rise Set
Actual Time
Civil Twilight
Nautical Twilight
Astronomical Twilight
Moon
Length of Visible Light
Length of Day
Tomorrow will be .
, % of the Moon is Illuminated

Today's Extremes

State Highs State Lows

Community

WunderPhotos

Upload Photos

1,891,395 photos uploaded!

WunderBlog® & News

Nearby

Air Quality

  Air Quality AQ Index Pollutant
Not available.

Snow Depth

Station Depth Elevation

Earthquake Activity

City Distance Mag. Time & Date
Minimum magnitude displayed is 2.5.

Coastal Water Temperatures

Place Temperature

Stations

Nearby Weather Stations

Station Location Temp. Windchill Dew Point Humidity Wind Precip. Elev Updated Type
                   

Watches & Warnings

Fire Weather Warning
Issued: 9:31 PM CST Feb. 7, 2016 – National Weather Service

... Red flag warning in effect from 9 am to 5 PM CST Monday for
strong northerly winds and low relative humidity...

The National Weather Service in Corpus Christi has issued a red
flag warning... which is in effect from 9 am to 5 PM CST Monday.
The Fire Weather Watch is no longer in effect.

* Timing... 9 am to 4 PM Monday.

* Wind... north 15 to 25 mph with gusts to 35 mph.

* Humidity... 15 to 25 percent over inland areas and 25 to 35
percent over the immediate coast.

* Impacts... fires will likely spread rapidly. Substantial
resistance to control efforts will occur.

Precautionary/preparedness actions...

Residents are urged to exercise care with respect to all outdoor
activities that could inadvertently cause wildfires. Report
wildfires quickly to the nearest Fire Department or law
enforcement office.



Heavener